createdAt,value
2019-05-14T00:01:58.361Z,99.90
2019-05-14T00:06:06.615Z,99.90
2019-05-14T00:10:13.645Z,99.90
2019-05-14T00:14:15.519Z,99.90
2019-05-14T00:18:15.918Z,99.90
2019-05-14T00:22:14.526Z,99.90
2019-05-14T00:26:12.986Z,99.90
2019-05-14T00:30:24.129Z,99.90
2019-05-14T00:34:22.670Z,99.90
2019-05-14T00:38:22.560Z,99.90
2019-05-14T00:42:24.409Z,99.90
2019-05-14T00:46:31.467Z,99.90
2019-05-14T00:50:27.775Z,99.90
2019-05-14T00:54:28.703Z,99.90
2019-05-14T00:58:27.201Z,99.90
2019-05-14T01:02:25.669Z,99.90
2019-05-14T01:06:31.843Z,99.90
2019-05-14T01:10:41.802Z,99.90
2019-05-14T01:14:45.437Z,99.90
2019-05-14T01:18:43.904Z,99.90
2019-05-14T01:22:42.463Z,99.90
2019-05-14T01:26:45.761Z,99.90
2019-05-14T01:30:44.282Z,99.90
2019-05-14T01:34:45.503Z,99.90
2019-05-14T01:38:47.079Z,99.90
2019-05-14T01:42:52.235Z,99.90
2019-05-14T01:46:53.587Z,99.90
2019-05-14T01:50:56.260Z,99.90
2019-05-14T01:59:01.470Z,99.90
2019-05-14T02:03:09.316Z,99.90
2019-05-14T02:07:07.915Z,99.90
2019-05-14T02:11:12.141Z,99.90
2019-05-14T02:15:13.754Z,99.90
2019-05-14T02:19:14.445Z,99.90
2019-05-14T02:23:22.637Z,99.90
2019-05-14T02:27:21.546Z,99.90
2019-05-14T02:31:29.199Z,99.90
2019-05-14T02:35:34.482Z,99.90
2019-05-14T02:39:49.902Z,99.90
2019-05-14T02:43:49.922Z,99.90
2019-05-14T02:47:52.168Z,99.90
2019-05-14T02:51:50.967Z,99.90
2019-05-14T02:55:49.969Z,99.90
2019-05-14T02:59:59.700Z,99.90
2019-05-14T03:04:00.905Z,99.90
2019-05-14T03:08:03.596Z,99.90
2019-05-14T03:12:04.136Z,99.90
2019-05-14T03:16:24.938Z,99.90
2019-05-14T03:20:21.699Z,99.90
2019-05-14T03:24:28.739Z,99.90
2019-05-14T03:28:39.850Z,99.90
2019-05-14T03:36:43.354Z,99.90
2019-05-14T03:40:42.575Z,99.90
2019-05-14T03:44:49.511Z,99.90
2019-05-14T03:48:55.081Z,99.90
2019-05-14T03:52:59.424Z,99.90
2019-05-14T03:57:00.244Z,99.90
2019-05-14T04:01:01.129Z,99.90
2019-05-14T04:05:29.251Z,99.90
2019-05-14T04:09:29.495Z,99.90
2019-05-14T04:13:40.656Z,99.90
2019-05-14T04:17:42.293Z,99.90
2019-05-14T04:21:41.198Z,99.90
2019-05-14T04:25:49.865Z,99.90
2019-05-14T04:29:53.741Z,99.90
2019-05-14T04:33:59.256Z,99.90
2019-05-14T04:37:58.853Z,99.90
2019-05-14T04:42:00.003Z,99.90
2019-05-14T04:46:00.861Z,99.90
2019-05-14T04:50:05.141Z,99.90
2019-05-14T04:54:11.633Z,99.90
2019-05-14T04:58:13.691Z,99.90
2019-05-14T05:02:12.150Z,99.90
2019-05-14T05:06:39.517Z,99.90
2019-05-14T05:10:32.148Z,99.90
2019-05-14T05:14:38.777Z,99.90
2019-05-14T05:18:34.296Z,99.90
2019-05-14T05:22:32.836Z,99.90
2019-05-14T05:26:33.211Z,99.90
2019-05-14T05:30:41.161Z,99.90
2019-05-14T05:34:39.203Z,99.90
2019-05-14T05:38:40.512Z,99.90
2019-05-14T05:42:39.012Z,99.90
2019-05-14T05:46:43.194Z,99.90
2019-05-14T05:50:48.281Z,99.90
2019-05-14T05:54:44.304Z,99.90
2019-05-14T05:58:42.763Z,99.90
2019-05-14T06:02:48.937Z,99.90
2019-05-14T06:06:48.216Z,99.90
2019-05-14T06:10:48.933Z,99.90
2019-05-14T06:14:50.502Z,99.90
2019-05-14T06:18:52.378Z,99.90
2019-05-14T06:22:50.852Z,99.90
2019-05-14T06:26:50.408Z,99.90
2019-05-14T06:30:48.925Z,99.90
2019-05-14T06:34:48.944Z,99.90
2019-05-14T06:38:49.478Z,99.90
2019-05-14T06:42:51.190Z,99.90
2019-05-14T06:46:53.483Z,99.90
2019-05-14T06:50:53.058Z,99.90
2019-05-14T06:54:51.560Z,99.90
2019-05-14T06:58:50.028Z,99.90
2019-05-14T07:02:49.114Z,99.90
2019-05-14T07:06:49.693Z,99.90
2019-05-14T07:10:48.675Z,99.90
2019-05-14T07:14:48.160Z,99.90
2019-05-14T07:18:59.098Z,99.90
2019-05-14T07:22:58.612Z,99.90
2019-05-14T07:27:04.081Z,99.90
2019-05-14T07:31:09.224Z,99.90
2019-05-14T07:35:11.021Z,99.90
2019-05-14T07:39:13.264Z,99.90
2019-05-14T07:43:15.756Z,99.90
2019-05-14T07:47:18.655Z,99.90
2019-05-14T07:51:19.142Z,99.90
2019-05-14T07:55:25.794Z,99.90
2019-05-14T07:59:32.183Z,99.90
2019-05-14T08:03:29.537Z,99.90
2019-05-14T08:07:29.922Z,99.90
2019-05-14T08:11:28.787Z,99.90
2019-05-14T08:15:28.387Z,99.90
2019-05-14T08:19:34.289Z,99.90
2019-05-14T08:23:48.040Z,99.90
2019-05-14T08:27:42.190Z,99.90
2019-05-14T08:31:45.356Z,99.90
2019-05-14T08:35:44.268Z,99.90
2019-05-14T08:39:42.848Z,99.90
2019-05-14T08:43:45.798Z,99.90
2019-05-14T08:47:48.336Z,99.90
2019-05-14T08:51:50.320Z,99.90
2019-05-14T08:55:55.177Z,99.90
2019-05-14T08:59:53.798Z,99.90
2019-05-14T09:03:55.914Z,99.90
2019-05-14T09:07:58.205Z,99.90
2019-05-14T09:12:05.464Z,99.90
2019-05-14T09:16:03.999Z,99.90
2019-05-14T09:20:07.197Z,99.90
2019-05-14T09:24:09.591Z,99.90
2019-05-14T09:28:09.065Z,99.90
2019-05-14T09:32:15.284Z,99.90
2019-05-14T09:36:23.869Z,99.90
2019-05-14T09:40:22.744Z,99.90
2019-05-14T09:44:23.117Z,99.90
2019-05-14T09:48:21.665Z,99.90
2019-05-14T09:52:25.280Z,99.90
2019-05-14T09:56:34.015Z,99.90
2019-05-14T10:00:33.329Z,94.90
2019-05-14T10:04:31.855Z,96.30
2019-05-14T10:08:35.244Z,95.80
2019-05-14T10:12:51.782Z,96.10
2019-05-14T10:16:45.301Z,95.50
2019-05-14T10:20:49.088Z,93.60
2019-05-14T10:24:48.326Z,83.70
2019-05-14T10:28:48.494Z,80.00
2019-05-14T10:32:49.293Z,81.00
2019-05-14T10:36:47.304Z,78.70
2019-05-14T10:40:50.735Z,78.90
2019-05-14T10:44:58.639Z,80.20
2019-05-14T10:49:16.648Z,78.60
2019-05-14T10:53:03.352Z,81.20
2019-05-14T10:57:09.602Z,81.60
2019-05-14T11:01:11.351Z,82.20
2019-05-14T11:05:11.274Z,84.00
2019-05-14T11:09:17.945Z,83.90
2019-05-14T11:13:22.599Z,77.70
2019-05-14T11:17:24.177Z,79.10
2019-05-14T11:21:29.866Z,78.40
2019-05-14T11:25:29.059Z,75.40
2019-05-14T11:29:29.599Z,72.90
2019-05-14T11:33:33.920Z,68.60
2019-05-14T11:37:31.605Z,69.00
2019-05-14T11:41:32.935Z,70.40
2019-05-14T11:45:31.398Z,69.30
2019-05-14T11:49:30.402Z,71.50
2019-05-14T11:53:34.575Z,66.80
2019-05-14T11:57:38.179Z,65.90
2019-05-14T12:01:39.062Z,64.30
2019-05-14T12:05:42.076Z,65.50
2019-05-14T12:09:39.751Z,66.00
2019-05-14T12:13:40.410Z,68.80
2019-05-14T12:17:41.269Z,71.00
2019-05-14T12:21:39.990Z,69.90
2019-05-14T12:25:42.538Z,68.50
2019-05-14T12:29:41.024Z,67.50
2019-05-14T12:33:42.664Z,65.80
2019-05-14T12:37:41.681Z,64.10
2019-05-14T12:41:40.210Z,64.50
2019-05-14T12:45:41.578Z,65.60
2019-05-14T12:49:40.065Z,65.80
2019-05-14T12:53:43.547Z,63.40
2019-05-14T12:57:45.403Z,64.80
2019-05-14T13:01:49.271Z,64.00
2019-05-14T13:05:52.404Z,65.00
2019-05-14T13:09:50.354Z,64.80
2019-05-14T13:13:49.238Z,65.90
2019-05-14T13:17:54.615Z,65.60
2019-05-14T13:22:10.015Z,64.50
2019-05-14T13:25:58.988Z,62.70
2019-05-14T13:30:00.617Z,63.20
2019-05-14T13:34:01.136Z,64.00
2019-05-14T13:38:01.774Z,62.80
2019-05-14T13:42:00.392Z,60.60
2019-05-14T13:46:00.694Z,61.10
2019-05-14T13:50:01.254Z,61.60
2019-05-14T13:54:01.909Z,62.30
2019-05-14T13:58:03.371Z,59.50
2019-05-14T14:02:01.913Z,56.40
2019-05-14T14:06:00.810Z,55.90
2019-05-14T14:10:18.396Z,55.40
2019-05-14T14:14:19.910Z,54.50
2019-05-14T14:18:20.826Z,53.80
2019-05-14T14:22:19.369Z,55.20
2019-05-14T14:26:19.753Z,55.50
2019-05-14T14:30:19.638Z,57.40
2019-05-14T14:34:18.373Z,58.10
2019-05-14T14:38:19.743Z,58.00
2019-05-14T14:42:19.580Z,51.50
2019-05-14T14:46:19.522Z,45.70
2019-05-14T14:50:19.356Z,42.50
2019-05-14T14:54:18.288Z,40.60
2019-05-14T14:58:19.857Z,41.30
2019-05-14T15:02:28.575Z,42.30
2019-05-14T15:06:30.536Z,42.90
2019-05-14T15:10:28.638Z,45.20
2019-05-14T15:14:29.767Z,46.10
2019-05-14T15:18:28.854Z,42.40
2019-05-14T15:22:30.907Z,41.50
2019-05-14T15:26:30.969Z,39.30
2019-05-14T15:30:39.662Z,39.60
2019-05-14T15:34:41.277Z,39.60
2019-05-14T15:38:39.979Z,39.50
2019-05-14T15:42:39.843Z,42.70
2019-05-14T15:46:41.737Z,40.50
2019-05-14T15:50:39.086Z,40.30
2019-05-14T15:54:46.361Z,37.80
2019-05-14T15:58:39.775Z,37.90
2019-05-14T16:02:42.649Z,38.70
2019-05-14T16:06:43.691Z,37.80
2019-05-14T16:10:42.213Z,38.80
2019-05-14T16:14:41.213Z,39.00
2019-05-14T16:18:40.350Z,43.10
2019-05-14T16:22:40.257Z,46.90
2019-05-14T16:26:52.904Z,48.40
2019-05-14T16:30:51.429Z,49.70
2019-05-14T16:34:49.908Z,49.20
2019-05-14T16:38:48.493Z,49.20
2019-05-14T16:42:48.556Z,50.50
2019-05-14T16:46:53.405Z,50.50
2019-05-14T16:50:50.999Z,50.70
2019-05-14T16:54:51.129Z,50.90
2019-05-14T16:58:58.190Z,51.00
2019-05-14T17:02:59.037Z,52.00
2019-05-14T17:06:59.782Z,53.10
2019-05-14T17:11:01.982Z,54.70
2019-05-14T17:15:00.736Z,55.30
2019-05-14T17:19:00.934Z,56.40
2019-05-14T17:23:03.855Z,56.70
2019-05-14T17:26:59.725Z,57.10
2019-05-14T17:30:58.276Z,57.50
2019-05-14T17:34:56.802Z,58.80
2019-05-14T17:38:58.699Z,57.80
2019-05-14T17:42:59.182Z,58.50
2019-05-14T17:46:58.695Z,59.00
2019-05-14T17:50:59.019Z,60.10
2019-05-14T17:55:01.145Z,60.80
2019-05-14T17:59:03.736Z,61.40
2019-05-14T18:03:02.362Z,60.10
2019-05-14T18:07:02.585Z,60.50
2019-05-14T18:11:01.929Z,61.50
2019-05-14T18:15:00.707Z,62.10
2019-05-14T18:19:03.650Z,62.40
2019-05-14T18:23:02.197Z,63.40
2019-05-14T18:27:04.036Z,62.40
2019-05-14T18:31:06.023Z,62.90
2019-05-14T18:35:06.019Z,62.60
2019-05-14T18:39:11.217Z,63.70
2019-05-14T18:43:12.632Z,63.80
2019-05-14T18:47:11.158Z,64.50
2019-05-14T18:51:11.886Z,65.20
2019-05-14T18:55:10.772Z,66.00
2019-05-14T18:59:14.162Z,67.50
2019-05-14T19:03:13.116Z,68.60
2019-05-14T19:07:15.592Z,70.80
2019-05-14T19:11:14.055Z,75.20
2019-05-14T19:15:13.334Z,75.90
2019-05-14T19:19:12.398Z,70.80
2019-05-14T19:23:12.949Z,70.50
2019-05-14T19:27:19.715Z,71.90
2019-05-14T19:31:24.856Z,73.30
2019-05-14T19:35:23.430Z,75.10
2019-05-14T19:39:22.025Z,75.50
2019-05-14T19:43:23.775Z,77.40
2019-05-14T19:47:24.426Z,79.60
2019-05-14T19:51:23.936Z,81.70
2019-05-14T19:55:22.407Z,83.60
2019-05-14T19:59:28.636Z,85.60
2019-05-14T20:03:37.511Z,88.00
2019-05-14T20:07:38.787Z,90.40
2019-05-14T20:11:45.028Z,91.90
2019-05-14T20:15:48.471Z,93.90
2019-05-14T20:19:49.555Z,96.10
2019-05-14T20:23:48.310Z,99.00
2019-05-14T20:27:48.009Z,99.90
2019-05-14T20:31:49.027Z,99.90
2019-05-14T20:35:48.744Z,99.90
2019-05-14T20:40:00.425Z,99.90
2019-05-14T20:44:04.666Z,99.90
2019-05-14T20:48:09.686Z,99.90
2019-05-14T20:52:08.742Z,99.90
2019-05-14T20:56:08.307Z,99.90
2019-05-14T21:00:11.337Z,99.90
2019-05-14T21:04:12.531Z,99.90
2019-05-14T21:12:41.837Z,99.90
2019-05-14T21:16:44.928Z,99.90
2019-05-14T21:20:51.416Z,99.90
2019-05-14T21:24:53.149Z,99.90
2019-05-14T21:29:04.463Z,99.90
2019-05-14T21:33:03.024Z,99.90
2019-05-14T21:37:01.639Z,99.90
2019-05-14T21:41:00.276Z,99.90
2019-05-14T21:44:58.830Z,99.90
2019-05-14T21:48:58.565Z,99.90
2019-05-14T21:53:02.702Z,99.90
2019-05-14T21:57:01.469Z,99.90
2019-05-14T22:01:02.146Z,99.90
2019-05-14T22:05:02.635Z,99.90
2019-05-14T22:09:05.800Z,99.90
2019-05-14T22:13:04.524Z,99.90
2019-05-14T22:17:07.880Z,99.90
2019-05-14T22:21:05.807Z,99.90
2019-05-14T22:25:07.192Z,99.90
2019-05-14T22:29:08.147Z,99.90
2019-05-14T22:33:09.444Z,99.90
2019-05-14T22:37:08.069Z,99.90
2019-05-14T22:41:12.849Z,99.90
2019-05-14T22:45:13.403Z,99.90
2019-05-14T22:49:14.982Z,99.90
2019-05-14T22:53:14.020Z,99.90
2019-05-14T22:57:13.021Z,99.90
2019-05-14T23:01:18.415Z,99.90
2019-05-14T23:05:16.510Z,99.90
2019-05-14T23:09:19.069Z,99.90
2019-05-14T23:13:18.597Z,99.90
2019-05-14T23:17:20.715Z,99.90
2019-05-14T23:21:19.274Z,99.90
2019-05-14T23:25:18.464Z,99.90
2019-05-14T23:29:17.318Z,99.90
2019-05-14T23:33:18.898Z,99.90
2019-05-14T23:37:18.144Z,99.90
2019-05-14T23:41:25.486Z,99.90
2019-05-14T23:45:23.328Z,99.90
2019-05-14T23:49:21.905Z,99.90
2019-05-14T23:53:25.120Z,99.90
2019-05-14T23:57:28.839Z,99.90
